Latest Weather Observations for Rocky Gully South

IDW60801

Issued at 6:02 pm WST Saturday 4 July 2015 (issued every 30 minutes, with the page automatically refreshed every 10 minutes)

About weather observations | Map of weather stations | Latest weather observations for WA | Other Formats
Station Details ID: 009964 Name: ROCKY GULLY Lat: -34.57 Lon: 117.01 Height: 250.0 m
Data from the previous 72 hours. | See also: Recent months at Rocky Gully South
Date/Time
WST
Temp
°C
App
Temp
°C
Dew
Point
Rel
Hum
%
Delta-T
°C
Wind Press
QNH
hPa
Press
MSL
hPa
Rain
since 9 am
mm
Dir
 
Spd
km/h
Gust
km/h
Spd
kts
Gust
kts
04/06:00pm 13.6 11.5 8.2 70 2.7 WNW 9 15 5 8 - - 0.0
04/05:30pm 14.2 12.0 9.4 73 2.5 W 11 20 6 11 - - 0.0
04/05:00pm 15.1 12.6 9.7 70 2.8 W 13 20 7 11 - - 0.0
04/04:30pm 16.1 14.4 9.8 66 3.3 WNW 9 19 5 10 - - 0.0
04/04:00pm 16.7 14.4 9.1 61 4.0 W 11 19 6 10 - - 0.0
04/03:30pm 16.5 14.2 9.0 61 3.9 W 11 20 6 11 - - 0.0
04/03:00pm 16.2 13.4 8.4 60 4.0 W 13 22 7 12 - - 0.0
04/02:30pm 17.4 14.2 8.5 56 4.6 WNW 15 30 8 16 - - 0.0
04/02:00pm 16.8 14.6 9.2 61 4.0 WNW 11 22 6 12 - - 0.0
04/01:30pm 16.6 13.9 8.8 60 4.1 WNW 13 22 7 12 - - 0.0
04/01:00pm 15.4 12.9 8.4 63 3.6 WNW 11 22 6 12 - - 0.0
04/12:30pm 15.6 11.9 8.1 61 3.8 NW 17 33 9 18 - - 0.0
04/12:00pm 15.7 12.1 8.4 62 3.7 NW 17 30 9 16 - - 0.0
04/11:30am 15.7 12.7 9.4 66 3.3 NW 15 26 8 14 - - 0.0
04/11:00am 15.2 12.9 9.1 67 3.2 NW 11 20 6 11 - - 0.0
04/10:30am 15.0 11.8 8.3 64 3.4 WNW 15 24 8 13 - - 0.0
04/10:00am 14.3 12.5 9.5 73 2.5 NW 9 17 5 9 - - 0.0
04/09:30am 13.5 12.2 9.9 79 1.9 WNW 7 15 4 8 - - 0.0
04/09:00am 12.8 11.4 9.4 80 1.7 NW 7 11 4 6 - - 0.8
04/08:30am 12.2 11.0 9.4 83 1.4 NW 6 9 3 5 - - 0.8
04/08:00am 11.8 10.1 9.7 87 1.1 WNW 9 15 5 8 - - 0.8
04/07:30am 11.6 9.9 10.0 90 0.8 WNW 9 13 5 7 - - 0.8
04/07:00am 11.6 10.0 10.3 92 0.7 NW 9 19 5 10 - - 0.8
04/06:30am 11.5 10.0 10.4 93 0.6 NW 9 13 5 7 - - 0.8
04/06:00am 11.0 9.4 10.1 94 0.5 N 9 13 5 7 - - 0.8
04/05:30am 11.2 9.6 10.3 94 0.5 N 9 11 5 6 - - 0.8
04/05:00am 11.9 10.9 11.0 94 0.5 N 7 11 4 6 - - 0.8
04/04:30am 11.9 10.5 11.0 94 0.5 N 9 13 5 7 - - 0.8
04/04:00am 12.1 10.8 11.2 94 0.5 NNW 9 13 5 7 - - 0.8
04/03:30am 12.2 11.3 11.3 94 0.5 NNW 7 13 4 7 - - 0.8
04/03:00am 12.3 11.4 11.4 94 0.5 NW 7 11 4 6 - - 0.6
04/02:30am 12.3 11.4 11.4 94 0.5 NW 7 13 4 7 - - 0.6
04/02:00am 12.3 11.0 11.4 94 0.5 WNW 9 15 5 8 - - 0.6
04/01:30am 12.2 10.9 11.3 94 0.5 NNW 9 13 5 7 - - 0.4
04/01:00am 12.1 11.2 11.2 94 0.5 NW 7 11 4 6 - - 0.4
04/12:30am 12.0 11.0 11.1 94 0.5 NW 7 11 4 6 - - 0.4
04/12:00am 12.0 11.5 10.9 93 0.6 WNW 4 7 2 4 - - 0.4
 
Date/Time
WST
Temp
°C
App
Temp
°C
Dew
Point
Rel
Hum
%
Delta-T
°C
Wind Press
QNH
hPa
Press
MSL
hPa
Rain
since 9 am
mm
Dir
 
Spd
km/h
Gust
km/h
Spd
kts
Gust
kts
03/11:30pm 12.2 11.4 11.1 93 0.6 NW 6 9 3 5 - - 0.4
03/11:00pm 12.4 11.5 11.3 93 0.6 NW 7 11 4 6 - - 0.4
03/10:30pm 12.5 11.8 11.4 93 0.6 WNW 6 11 3 6 - - 0.4
03/10:00pm 12.6 11.9 11.5 93 0.6 W 6 11 3 6 - - 0.4
03/09:30pm 12.0 11.9 10.9 93 0.6 NW 2 6 1 3 - - 0.4
03/09:00pm 12.3 12.6 11.0 92 0.7 CALM 0 6 0 3 - - 0.4
03/08:30pm 12.5 11.7 11.2 92 0.7 NW 6 7 3 4 - - 0.4
03/08:00pm 12.6 12.2 11.2 91 0.7 WNW 4 7 2 4 - - 0.4
03/07:30pm 13.4 13.3 12.0 91 0.8 WSW 4 6 2 3 - - 0.4
03/07:00pm 13.8 13.8 12.4 91 0.8 WSW 4 7 2 4 - - 0.4
03/06:30pm 14.1 14.1 12.5 90 0.9 W 4 6 2 3 - - 0.4
03/06:00pm 14.3 14.8 12.7 90 0.9 SW 2 7 1 4 - - 0.4
03/05:30pm 14.7 14.5 12.9 89 1.0 SW 6 7 3 4 - - 0.4
03/05:00pm 15.1 14.7 13.0 87 1.2 SSW 7 11 4 6 - - 0.4
03/04:30pm 15.9 15.6 13.4 85 1.4 SW 7 11 4 6 - - 0.2
03/04:00pm 16.3 16.2 14.0 86 1.3 SSW 7 11 4 6 - - 0.2
03/03:30pm 15.6 15.1 13.8 89 1.0 WSW 9 17 5 9 - - 0.2
03/03:00pm 15.8 15.2 13.6 87 1.2 SW 9 15 5 8 - - 0.2
03/02:30pm 16.2 16.1 13.9 86 1.3 WSW 7 11 4 6 - - 0.0
03/02:00pm 16.9 16.6 13.2 79 2.1 WSW 7 13 4 7 - - 0.0
03/01:30pm 16.5 16.2 12.8 79 2.1 SW 6 11 3 6 - - 0.0
03/01:00pm 16.8 15.7 13.1 79 2.1 WNW 11 17 6 9 - - 0.0
03/12:30pm 16.0 15.3 13.3 84 1.5 NW 9 15 5 8 - - 0.0
03/12:00pm 15.5 15.2 13.3 87 1.2 WNW 7 13 4 7 - - 0.0
03/11:30am 15.0 14.3 13.2 89 1.0 WNW 9 15 5 8 - - 0.0
03/11:00am 14.8 14.5 13.2 90 0.9 WNW 7 13 4 7 - - 0.0
03/10:30am 15.1 14.7 13.1 88 1.1 NW 7 11 4 6 - - 0.0
03/10:00am 14.9 14.1 12.8 87 1.2 NNW 9 13 5 7 - - 0.0
03/09:30am 14.6 14.1 12.8 89 1.0 NNW 7 13 4 7 - - 0.0
03/09:00am 14.2 13.3 12.6 90 0.9 NNW 9 15 5 8 - - 0.0
03/08:30am 13.8 13.2 12.4 91 0.8 NNW 7 11 4 6 - - 0.0
03/08:00am 13.5 12.8 12.1 91 0.8 NW 7 11 4 6 - - 0.0
03/07:30am 13.2 12.4 11.8 91 0.8 NW 7 13 4 7 - - 0.0
03/07:00am 12.6 11.7 11.2 91 0.7 NW 7 11 4 6 - - 0.0
03/06:30am 11.8 10.8 10.2 90 0.8 N 6 7 3 4 - - 0.0
03/06:00am 12.4 11.3 10.8 90 0.8 N 7 11 4 6 - - 0.0
03/05:30am 12.3 10.8 10.7 90 0.8 NNW 9 13 5 7 - - 0.0
03/05:00am 12.1 10.1 10.3 89 0.9 NNW 11 15 6 8 - - 0.0
03/04:30am 12.1 10.5 10.3 89 0.9 N 9 13 5 7 - - 0.0
03/04:00am 11.6 9.6 10.0 90 0.8 NNW 11 13 6 7 - - 0.0
03/03:30am 10.9 9.4 9.3 90 0.8 N 7 11 4 6 - - 0.0
03/03:00am 10.9 9.4 9.2 89 0.9 N 7 13 4 7 - - 0.0
03/02:30am 11.7 10.1 10.1 90 0.8 NNW 9 15 5 8 - - 0.0
03/02:00am 10.3 8.6 8.4 88 0.9 N 7 11 4 6 - - 0.0
03/01:30am 10.1 8.5 7.9 86 1.1 N 6 7 3 4 - - 0.0
03/01:00am 10.6 8.9 8.2 85 1.2 N 7 9 4 5 - - 0.0
03/12:30am 10.7 8.9 7.8 82 1.4 N 7 11 4 6 - - 0.0
03/12:00am 11.2 8.7 8.1 81 1.5 N 11 13 6 7 - - 0.0
 
Date/Time
WST
Temp
°C
App
Temp
°C
Dew
Point
Rel
Hum
%
Delta-T
°C
Wind Press
QNH
hPa
Press
MSL
hPa
Rain
since 9 am
mm
Dir
 
Spd
km/h
Gust
km/h
Spd
kts
Gust
kts
02/11:30pm 11.4 9.3 8.1 80 1.6 NNW 9 15 5 8 - - 0.0
02/11:00pm 11.2 9.1 8.1 81 1.5 N 9 13 5 7 - - 0.0
02/10:30pm 11.3 9.5 8.0 80 1.6 N 7 11 4 6 - - 0.0
02/10:00pm 11.2 9.0 7.9 80 1.6 N 9 13 5 7 - - 0.0
02/09:30pm 11.8 10.1 8.5 80 1.7 N 7 11 4 6 - - 0.0
02/09:00pm 11.6 9.9 8.3 80 1.6 N 7 9 4 5 - - 0.0
02/08:30pm 11.7 10.1 8.0 78 1.8 N 6 7 3 4 - - 0.0
02/08:00pm 12.5 10.8 8.2 75 2.2 N 7 13 4 7 - - 0.0
02/07:30pm 12.6 11.0 8.7 77 2.0 N 7 11 4 6 - - 0.0
02/07:00pm 12.6 11.2 8.7 77 2.0 N 6 7 3 4 - - 0.0
02/06:30pm 13.1 11.7 9.0 76 2.1 N 6 9 3 5 - - 0.0
02/06:00pm 13.8 12.4 9.5 75 2.2 N 7 9 4 5 - - 0.0
02/05:30pm 14.6 13.3 10.0 74 2.4 NNE 7 9 4 5 - - 0.0
02/05:00pm 14.8 13.7 10.8 77 2.1 NNE 7 9 4 5 - - 0.0
02/04:30pm 15.9 15.4 10.7 71 2.8 N 4 7 2 4 - - 0.0
02/04:00pm 17.3 16.3 10.9 66 3.5 N 7 11 4 6 - - 0.0
02/03:30pm 17.9 16.0 10.5 62 4.0 N 11 15 6 8 - - 0.0
02/03:00pm 16.6 15.5 10.5 67 3.3 N 7 11 4 6 - - 0.0
02/02:30pm 16.3 14.2 9.9 66 3.4 N 11 17 6 9 - - 0.0
02/02:00pm 16.1 13.9 9.3 64 3.6 N 11 19 6 10 - - 0.0
02/01:30pm 15.8 13.6 9.5 66 3.3 N 11 20 6 11 - - 0.0
02/01:00pm 15.6 13.0 9.3 66 3.3 N 13 20 7 11 - - 0.0
02/12:30pm 15.9 14.0 10.4 70 2.9 N 11 20 6 11 - - 0.0
02/12:00pm 15.4 13.1 10.4 72 2.7 N 13 19 7 10 - - 0.0
02/11:30am 15.3 13.0 10.3 72 2.7 N 13 20 7 11 - - 0.0
02/11:00am 14.7 13.1 11.5 81 1.7 N 11 15 6 8 - - 0.0
02/10:30am 13.7 12.4 11.2 85 1.3 N 9 13 5 7 - - 0.0
02/10:00am 13.0 11.7 11.1 88 1.0 N 9 15 5 8 - - 0.0
02/09:30am 12.5 11.1 10.9 90 0.8 N 9 17 5 9 - - 0.0
02/09:00am 12.0 10.5 10.7 92 0.7 NNE 9 13 5 7 - - 4.2
02/08:30am 11.7 10.2 10.4 92 0.7 N 9 15 5 8 - - 4.2
02/08:00am 11.6 10.0 10.3 92 0.7 NNE 9 15 5 8 - - 4.2
02/07:30am 11.6 10.0 10.3 92 0.7 N 9 13 5 7 - - 4.2
02/07:00am 11.7 9.7 10.3 91 0.7 NNE 11 15 6 8 - - 4.0
02/06:30am 11.8 10.3 10.4 91 0.7 N 9 15 5 8 - - 3.6
02/06:00am 11.8 10.1 10.0 89 0.9 N 9 15 5 8 - - 2.8
02/05:30am 12.1 10.0 9.7 85 1.2 N 11 19 6 10 - - 1.6
02/05:00am 12.7 10.1 9.3 80 1.7 N 13 26 7 14 - - 1.2
02/04:30am 11.7 10.0 9.8 88 1.0 N 9 13 5 7 - - 1.2
02/04:00am 11.8 10.5 9.9 88 1.0 NNE 7 11 4 6 - - 1.2
02/03:30am 11.9 10.3 10.1 89 0.9 NNE 9 13 5 7 - - 1.2
02/03:00am 12.1 11.8 10.0 87 1.1 NNE 2 6 1 3 - - 1.2
02/02:30am 12.5 11.8 9.9 84 1.3 N 4 9 2 5 - - 0.8
02/02:00am 13.1 11.7 9.7 80 1.8 N 7 13 4 7 - - 0.0
02/01:30am 13.0 12.5 9.4 79 1.9 N 2 6 1 3 - - 0.0
02/01:00am 13.1 11.7 9.5 79 1.9 NNE 7 9 4 5 - - 0.0
02/12:30am 13.1 11.7 9.7 80 1.8 NNE 7 9 4 5 - - 0.0
02/12:00am 13.8 13.4 9.8 77 2.1 ENE 2 7 1 4 - - 0.0
 
Date/Time
WST
Temp
°C
App
Temp
°C
Dew
Point
Rel
Hum
%
Delta-T
°C
Wind Press
QNH
hPa
Press
MSL
hPa
Rain
since 9 am
mm
Dir
 
Spd
km/h
Gust
km/h
Spd
kts
Gust
kts
01/11:30pm 13.9 13.5 9.9 77 2.1 NNE 2 6 1 3 - - 0.0
01/11:00pm 14.2 13.1 10.0 76 2.2 ENE 6 11 3 6 - - 0.0
01/10:30pm 14.3 13.2 10.1 76 2.2 NE 6 7 3 4 - - 0.0
01/10:00pm 14.3 14.3 9.9 75 2.3 CALM 0 6 0 3 - - 0.0
01/09:30pm 14.4 14.5 10.0 75 2.3 CALM 0 0 0 0 - - 0.0
01/09:00pm 14.8 13.6 10.2 74 2.4 NNE 7 9 4 5 - - 0.0
01/08:30pm 14.1 13.1 10.3 78 2.0 NE 6 9 3 5 - - 0.0
01/08:00pm 14.4 13.4 10.2 76 2.2 NE 6 9 3 5 - - 0.0
01/07:30pm 15.2 14.2 10.4 73 2.6 ENE 6 11 3 6 - - 0.0
01/07:00pm 14.5 14.0 10.7 78 2.0 NNE 4 6 2 3 - - 0.0
01/06:30pm 14.9 14.8 10.7 76 2.2 ENE 2 6 1 3 - - 0.0

Other Formats:

Comma delimited format used in spreadsheet applications
http://www.bom.gov.au/fwo/IDW60801/IDW60801.94631.axf

JavaScript Object Notation format (JSON) in row-major order
http://www.bom.gov.au/fwo/IDW60801/IDW60801.94631.json